Aviation Digital Data Service (ADDS)

Output produced by METARs form (1038 UTC 17 June 2019)
found at http://www.aviationweather.gov/metar/data/
 
METAR text: UTNN 171000Z 26006KT CAVOK 35/01 Q1008 R33/CLRD60 NOSIG
Conditions at: UTNN (NUKUS/KARAKALPAK, UZ) observed 1000 UTC 17 June 2019
Temperature: 35.0°C (95°F)
Dewpoint: 1.0°C (34°F) [RH = 12%]
Pressure (altimeter): 29.76 inches Hg (1008.0 mb)
Winds: from the W (260 degrees) at 7 MPH (6 knots; 3.1 m/s)
Visibility: 6 or more miles (10+ km)
Ceiling: ceiling and visibility are OK
Clouds: unknown
Weather: no significant weather observed at this time

METAR text: UTNN 170930Z 26006KT CAVOK 34/02 Q1008 R33/CLRD60 NOSIG
Conditions at: UTNN (NUKUS/KARAKALPAK, UZ) observed 0930 UTC 17 June 2019
Temperature: 34.0°C (93°F)
Dewpoint: 2.0°C (36°F) [RH = 13%]
Pressure (altimeter): 29.76 inches Hg (1008.0 mb)
Winds: from the W (260 degrees) at 7 MPH (6 knots; 3.1 m/s)
Visibility: 6 or more miles (10+ km)
Ceiling: ceiling and visibility are OK
Clouds: unknown
Weather: no significant weather observed at this time

METAR text: UTNN 170900Z 29004KT CAVOK 34/01 Q1009 R33/CLRD60 NOSIG
Conditions at: UTNN (NUKUS/KARAKALPAK, UZ) observed 0900 UTC 17 June 2019
Temperature: 34.0°C (93°F)
Dewpoint: 1.0°C (34°F) [RH = 12%]
Pressure (altimeter): 29.79 inches Hg (1009.0 mb)
Winds: from the WNW (290 degrees) at 5 MPH (4 knots; 2.1 m/s)
Visibility: 6 or more miles (10+ km)
Ceiling: ceiling and visibility are OK
Clouds: unknown
Weather: no significant weather observed at this time

METAR text: UTNN 170830Z 22006KT CAVOK 34/02 Q1009 R33/CLRD60 NOSIG
Conditions at: UTNN (NUKUS/KARAKALPAK, UZ) observed 0830 UTC 17 June 2019
Temperature: 34.0°C (93°F)
Dewpoint: 2.0°C (36°F) [RH = 13%]
Pressure (altimeter): 29.79 inches Hg (1009.0 mb)
Winds: from the SW (220 degrees) at 7 MPH (6 knots; 3.1 m/s)
Visibility: 6 or more miles (10+ km)
Ceiling: ceiling and visibility are OK
Clouds: unknown
Weather: no significant weather observed at this time

METAR text: UTNN 170800Z 27006KT CAVOK 33/01 Q1009 R15/CLRD60 NOSIG
Conditions at: UTNN (NUKUS/KARAKALPAK, UZ) observed 0800 UTC 17 June 2019
Temperature: 33.0°C (91°F)
Dewpoint: 1.0°C (34°F) [RH = 13%]
Pressure (altimeter): 29.79 inches Hg (1009.0 mb)
Winds: from the W (270 degrees) at 7 MPH (6 knots; 3.1 m/s)
Visibility: 6 or more miles (10+ km)
Ceiling: ceiling and visibility are OK
Clouds: unknown
Weather: no significant weather observed at this time

METAR text: UTNN 170730Z 21006KT CAVOK 33/01 Q1009 R33/CLRD60 NOSIG
Conditions at: UTNN (NUKUS/KARAKALPAK, UZ) observed 0730 UTC 17 June 2019
Temperature: 33.0°C (91°F)
Dewpoint: 1.0°C (34°F) [RH = 13%]
Pressure (altimeter): 29.79 inches Hg (1009.0 mb)
Winds: from the SSW (210 degrees) at 7 MPH (6 knots; 3.1 m/s)
Visibility: 6 or more miles (10+ km)
Ceiling: ceiling and visibility are OK
Clouds: unknown
Weather: no significant weather observed at this time

METAR text: UTNN 170700Z 22004KT CAVOK 33/01 Q1009 R33/CLRD60 NOSIG
Conditions at: UTNN (NUKUS/KARAKALPAK, UZ) observed 0700 UTC 17 June 2019
Temperature: 33.0°C (91°F)
Dewpoint: 1.0°C (34°F) [RH = 13%]
Pressure (altimeter): 29.79 inches Hg (1009.0 mb)
Winds: from the SW (220 degrees) at 5 MPH (4 knots; 2.1 m/s)
Visibility: 6 or more miles (10+ km)
Ceiling: ceiling and visibility are OK
Clouds: unknown
Weather: no significant weather observed at this time

METAR text: UTNN 170630Z 22006KT CAVOK 32/02 Q1009 R33/CLRD60 NOSIG
Conditions at: UTNN (NUKUS/KARAKALPAK, UZ) observed 0630 UTC 17 June 2019
Temperature: 32.0°C (90°F)
Dewpoint: 2.0°C (36°F) [RH = 15%]
Pressure (altimeter): 29.79 inches Hg (1009.0 mb)
Winds: from the SW (220 degrees) at 7 MPH (6 knots; 3.1 m/s)
Visibility: 6 or more miles (10+ km)
Ceiling: ceiling and visibility are OK
Clouds: unknown
Weather: no significant weather observed at this time

METAR text: UTNN 170600Z 19006KT CAVOK 31/06 Q1010 R33/CLRD60 NOSIG
Conditions at: UTNN (NUKUS/KARAKALPAK, UZ) observed 0600 UTC 17 June 2019
Temperature: 31.0°C (88°F)
Dewpoint: 6.0°C (43°F) [RH = 21%]
Pressure (altimeter): 29.82 inches Hg (1010.0 mb)
Winds: from the S (190 degrees) at 7 MPH (6 knots; 3.1 m/s)
Visibility: 6 or more miles (10+ km)
Ceiling: ceiling and visibility are OK
Clouds: unknown
Weather: no significant weather observed at this time

METAR text: UTNN 170530Z 17008KT CAVOK 31/05 Q1009 R33/CLRD60 NOSIG
Conditions at: UTNN (NUKUS/KARAKALPAK, UZ) observed 0530 UTC 17 June 2019
Temperature: 31.0°C (88°F)
Dewpoint: 5.0°C (41°F) [RH = 19%]
Pressure (altimeter): 29.79 inches Hg (1009.0 mb)
Winds: from the S (170 degrees) at 9 MPH (8 knots; 4.1 m/s)
Visibility: 6 or more miles (10+ km)
Ceiling: ceiling and visibility are OK
Clouds: unknown
Weather: no significant weather observed at this time

METAR text: UTNN 170500Z 18008KT CAVOK 30/06 Q1009 R33/CLRD60 NOSIG
Conditions at: UTNN (NUKUS/KARAKALPAK, UZ) observed 0500 UTC 17 June 2019
Temperature: 30.0°C (86°F)
Dewpoint: 6.0°C (43°F) [RH = 22%]
Pressure (altimeter): 29.79 inches Hg (1009.0 mb)
Winds: from the S (180 degrees) at 9 MPH (8 knots; 4.1 m/s)
Visibility: 6 or more miles (10+ km)
Ceiling: ceiling and visibility are OK
Clouds: unknown
Weather: no significant weather observed at this time

METAR text: UTNN 170430Z 17008KT CAVOK 29/06 Q1010 R33/CLRD60 NOSIG
Conditions at: UTNN (NUKUS/KARAKALPAK, UZ) observed 0430 UTC 17 June 2019
Temperature: 29.0°C (84°F)
Dewpoint: 6.0°C (43°F) [RH = 23%]
Pressure (altimeter): 29.82 inches Hg (1010.0 mb)
Winds: from the S (170 degrees) at 9 MPH (8 knots; 4.1 m/s)
Visibility: 6 or more miles (10+ km)
Ceiling: ceiling and visibility are OK
Clouds: unknown
Weather: no significant weather observed at this time

METAR text: UTNN 170400Z 15010KT CAVOK 29/05 Q1010 R33/CLRD60 NOSIG
Conditions at: UTNN (NUKUS/KARAKALPAK, UZ) observed 0400 UTC 17 June 2019
Temperature: 29.0°C (84°F)
Dewpoint: 5.0°C (41°F) [RH = 22%]
Pressure (altimeter): 29.82 inches Hg (1010.0 mb)
Winds: from the SSE (150 degrees) at 12 MPH (10 knots; 5.1 m/s)
Visibility: 6 or more miles (10+ km)
Ceiling: ceiling and visibility are OK
Clouds: unknown
Weather: no significant weather observed at this time

METAR text: UTNN 170330Z 15008KT CAVOK 28/06 Q1009 R33/CLRD60 NOSIG
Conditions at: UTNN (NUKUS/KARAKALPAK, UZ) observed 0330 UTC 17 June 2019
Temperature: 28.0°C (82°F)
Dewpoint: 6.0°C (43°F) [RH = 25%]
Pressure (altimeter): 29.79 inches Hg (1009.0 mb)
Winds: from the SSE (150 degrees) at 9 MPH (8 knots; 4.1 m/s)
Visibility: 6 or more miles (10+ km)
Ceiling: ceiling and visibility are OK
Clouds: unknown
Weather: no significant weather observed at this time

METAR text: UTNN 170300Z 13006KT CAVOK 26/05 Q1009 R33/CLRD60 NOSIG
Conditions at: UTNN (NUKUS/KARAKALPAK, UZ) observed 0300 UTC 17 June 2019
Temperature: 26.0°C (79°F)
Dewpoint: 5.0°C (41°F) [RH = 26%]
Pressure (altimeter): 29.79 inches Hg (1009.0 mb)
Winds: from the SE (130 degrees) at 7 MPH (6 knots; 3.1 m/s)
Visibility: 6 or more miles (10+ km)
Ceiling: ceiling and visibility are OK
Clouds: unknown
Weather: no significant weather observed at this time

METAR text: UTNN 170230Z 14006KT CAVOK 26/06 Q1009 R33/CLRD60 NOSIG
Conditions at: UTNN (NUKUS/KARAKALPAK, UZ) observed 0230 UTC 17 June 2019
Temperature: 26.0°C (79°F)
Dewpoint: 6.0°C (43°F) [RH = 28%]
Pressure (altimeter): 29.79 inches Hg (1009.0 mb)
Winds: from the SE (140 degrees) at 7 MPH (6 knots; 3.1 m/s)
Visibility: 6 or more miles (10+ km)
Ceiling: ceiling and visibility are OK
Clouds: unknown
Weather: no significant weather observed at this time

METAR text: UTNN 170200Z 15004KT CAVOK 24/07 Q1009 R33/CLRD60 NOSIG
Conditions at: UTNN (NUKUS/KARAKALPAK, UZ) observed 0200 UTC 17 June 2019
Temperature: 24.0°C (75°F)
Dewpoint: 7.0°C (45°F) [RH = 34%]
Pressure (altimeter): 29.79 inches Hg (1009.0 mb)
Winds: from the SSE (150 degrees) at 5 MPH (4 knots; 2.1 m/s)
Visibility: 6 or more miles (10+ km)
Ceiling: ceiling and visibility are OK
Clouds: unknown
Weather: no significant weather observed at this time

METAR text: UTNN 170130Z 14004KT CAVOK 22/07 Q1009 R33/CLRD60 NOSIG
Conditions at: UTNN (NUKUS/KARAKALPAK, UZ) observed 0130 UTC 17 June 2019
Temperature: 22.0°C (72°F)
Dewpoint: 7.0°C (45°F) [RH = 38%]
Pressure (altimeter): 29.79 inches Hg (1009.0 mb)
Winds: from the SE (140 degrees) at 5 MPH (4 knots; 2.1 m/s)
Visibility: 6 or more miles (10+ km)
Ceiling: ceiling and visibility are OK
Clouds: unknown
Weather: no significant weather observed at this time

METAR text: UTNN 170100Z 14004KT CAVOK 20/07 Q1009 R33/CLRD60 NOSIG
Conditions at: UTNN (NUKUS/KARAKALPAK, UZ) observed 0100 UTC 17 June 2019
Temperature: 20.0°C (68°F)
Dewpoint: 7.0°C (45°F) [RH = 43%]
Pressure (altimeter): 29.79 inches Hg (1009.0 mb)
Winds: from the SE (140 degrees) at 5 MPH (4 knots; 2.1 m/s)
Visibility: 6 or more miles (10+ km)
Ceiling: ceiling and visibility are OK
Clouds: unknown
Weather: no significant weather observed at this time

METAR text: UTNN 170030Z 14004KT CAVOK 20/07 Q1009 R33/CLRD60 NOSIG
Conditions at: UTNN (NUKUS/KARAKALPAK, UZ) observed 0030 UTC 17 June 2019
Temperature: 20.0°C (68°F)
Dewpoint: 7.0°C (45°F) [RH = 43%]
Pressure (altimeter): 29.79 inches Hg (1009.0 mb)
Winds: from the SE (140 degrees) at 5 MPH (4 knots; 2.1 m/s)
Visibility: 6 or more miles (10+ km)
Ceiling: ceiling and visibility are OK
Clouds: unknown
Weather: no significant weather observed at this time

METAR text: UTNN 170000Z 13004KT CAVOK 20/06 Q1009 R33/CLRD60 NOSIG
Conditions at: UTNN (NUKUS/KARAKALPAK, UZ) observed 0000 UTC 17 June 2019
Temperature: 20.0°C (68°F)
Dewpoint: 6.0°C (43°F) [RH = 40%]
Pressure (altimeter): 29.79 inches Hg (1009.0 mb)
Winds: from the SE (130 degrees) at 5 MPH (4 knots; 2.1 m/s)
Visibility: 6 or more miles (10+ km)
Ceiling: ceiling and visibility are OK
Clouds: unknown
Weather: no significant weather observed at this time

METAR text: UTNN 162330Z 13004KT CAVOK 20/06 Q1008 R33/CLRD60 NOSIG
Conditions at: UTNN (NUKUS/KARAKALPAK, UZ) observed 2330 UTC 16 June 2019
Temperature: 20.0°C (68°F)
Dewpoint: 6.0°C (43°F) [RH = 40%]
Pressure (altimeter): 29.76 inches Hg (1008.0 mb)
Winds: from the SE (130 degrees) at 5 MPH (4 knots; 2.1 m/s)
Visibility: 6 or more miles (10+ km)
Ceiling: ceiling and visibility are OK
Clouds: unknown
Weather: no significant weather observed at this time

METAR text: UTNN 162300Z 13002KT CAVOK 20/06 Q1009 R33/CLRD60 NOSIG
Conditions at: UTNN (NUKUS/KARAKALPAK, UZ) observed 2300 UTC 16 June 2019
Temperature: 20.0°C (68°F)
Dewpoint: 6.0°C (43°F) [RH = 40%]
Pressure (altimeter): 29.79 inches Hg (1009.0 mb)
Winds: from the SE (130 degrees) at 2 MPH (2 knots; 1.0 m/s)
Visibility: 6 or more miles (10+ km)
Ceiling: ceiling and visibility are OK
Clouds: unknown
Weather: no significant weather observed at this time

METAR text: UTNN 162230Z 11004KT CAVOK 21/06 Q1009 R33/CLRD60 NOSIG
Conditions at: UTNN (NUKUS/KARAKALPAK, UZ) observed 2230 UTC 16 June 2019
Temperature: 21.0°C (70°F)
Dewpoint: 6.0°C (43°F) [RH = 38%]
Pressure (altimeter): 29.79 inches Hg (1009.0 mb)
Winds: from the ESE (110 degrees) at 5 MPH (4 knots; 2.1 m/s)
Visibility: 6 or more miles (10+ km)
Ceiling: ceiling and visibility are OK
Clouds: unknown
Weather: no significant weather observed at this time

METAR text: UTNN 162200Z 12004KT CAVOK 22/06 Q1009 R33/CLRD60 NOSIG
Conditions at: UTNN (NUKUS/KARAKALPAK, UZ) observed 2200 UTC 16 June 2019
Temperature: 22.0°C (72°F)
Dewpoint: 6.0°C (43°F) [RH = 35%]
Pressure (altimeter): 29.79 inches Hg (1009.0 mb)
Winds: from the ESE (120 degrees) at 5 MPH (4 knots; 2.1 m/s)
Visibility: 6 or more miles (10+ km)
Ceiling: ceiling and visibility are OK
Clouds: unknown
Weather: no significant weather observed at this time

METAR text: UTNN 162130Z 14004KT CAVOK 21/05 Q1009 R33/CLRD60 NOSIG
Conditions at: UTNN (NUKUS/KARAKALPAK, UZ) observed 2130 UTC 16 June 2019
Temperature: 21.0°C (70°F)
Dewpoint: 5.0°C (41°F) [RH = 35%]
Pressure (altimeter): 29.79 inches Hg (1009.0 mb)
Winds: from the SE (140 degrees) at 5 MPH (4 knots; 2.1 m/s)
Visibility: 6 or more miles (10+ km)
Ceiling: ceiling and visibility are OK
Clouds: unknown
Weather: no significant weather observed at this time

METAR text: UTNN 162100Z 13004KT CAVOK 22/06 Q1009 R33/CLRD60 NOSIG
Conditions at: UTNN (NUKUS/KARAKALPAK, UZ) observed 2100 UTC 16 June 2019
Temperature: 22.0°C (72°F)
Dewpoint: 6.0°C (43°F) [RH = 35%]
Pressure (altimeter): 29.79 inches Hg (1009.0 mb)
Winds: from the SE (130 degrees) at 5 MPH (4 knots; 2.1 m/s)
Visibility: 6 or more miles (10+ km)
Ceiling: ceiling and visibility are OK
Clouds: unknown
Weather: no significant weather observed at this time

METAR text: UTNN 162030Z 12004KT CAVOK 22/06 Q1010 R33/CLRD60 NOSIG
Conditions at: UTNN (NUKUS/KARAKALPAK, UZ) observed 2030 UTC 16 June 2019
Temperature: 22.0°C (72°F)
Dewpoint: 6.0°C (43°F) [RH = 35%]
Pressure (altimeter): 29.82 inches Hg (1010.0 mb)
Winds: from the ESE (120 degrees) at 5 MPH (4 knots; 2.1 m/s)
Visibility: 6 or more miles (10+ km)
Ceiling: ceiling and visibility are OK
Clouds: unknown
Weather: no significant weather observed at this time

METAR text: UTNN 162000Z 12004KT CAVOK 22/07 Q1010 R33/CLRD60 NOSIG
Conditions at: UTNN (NUKUS/KARAKALPAK, UZ) observed 2000 UTC 16 June 2019
Temperature: 22.0°C (72°F)
Dewpoint: 7.0°C (45°F) [RH = 38%]
Pressure (altimeter): 29.82 inches Hg (1010.0 mb)
Winds: from the ESE (120 degrees) at 5 MPH (4 knots; 2.1 m/s)
Visibility: 6 or more miles (10+ km)
Ceiling: ceiling and visibility are OK
Clouds: unknown
Weather: no significant weather observed at this time

METAR text: UTNN 161930Z 10002KT CAVOK 22/07 Q1010 R33/CLRD60 NOSIG
Conditions at: UTNN (NUKUS/KARAKALPAK, UZ) observed 1930 UTC 16 June 2019
Temperature: 22.0°C (72°F)
Dewpoint: 7.0°C (45°F) [RH = 38%]
Pressure (altimeter): 29.82 inches Hg (1010.0 mb)
Winds: from the E (100 degrees) at 2 MPH (2 knots; 1.0 m/s)
Visibility: 6 or more miles (10+ km)
Ceiling: ceiling and visibility are OK
Clouds: unknown
Weather: no significant weather observed at this time

METAR text: UTNN 161900Z 00000KT CAVOK 23/05 Q1010 R33/CLRD60 NOSIG
Conditions at: UTNN (NUKUS/KARAKALPAK, UZ) observed 1900 UTC 16 June 2019
Temperature: 23.0°C (73°F)
Dewpoint: 5.0°C (41°F) [RH = 31%]
Pressure (altimeter): 29.82 inches Hg (1010.0 mb)
Winds: calm
Visibility: 6 or more miles (10+ km)
Ceiling: ceiling and visibility are OK
Clouds: unknown
Weather: no significant weather observed at this time

METAR text: UTNN 161830Z 11002KT CAVOK 23/05 Q1010 R33/CLRD60 NOSIG
Conditions at: UTNN (NUKUS/KARAKALPAK, UZ) observed 1830 UTC 16 June 2019
Temperature: 23.0°C (73°F)
Dewpoint: 5.0°C (41°F) [RH = 31%]
Pressure (altimeter): 29.82 inches Hg (1010.0 mb)
Winds: from the ESE (110 degrees) at 2 MPH (2 knots; 1.0 m/s)
Visibility: 6 or more miles (10+ km)
Ceiling: ceiling and visibility are OK
Clouds: unknown
Weather: no significant weather observed at this time

METAR text: UTNN 161800Z 08002KT CAVOK 24/06 Q1010 R33/CLRD60 NOSIG
Conditions at: UTNN (NUKUS/KARAKALPAK, UZ) observed 1800 UTC 16 June 2019
Temperature: 24.0°C (75°F)
Dewpoint: 6.0°C (43°F) [RH = 31%]
Pressure (altimeter): 29.82 inches Hg (1010.0 mb)
Winds: from the E (80 degrees) at 2 MPH (2 knots; 1.0 m/s)
Visibility: 6 or more miles (10+ km)
Ceiling: ceiling and visibility are OK
Clouds: unknown
Weather: no significant weather observed at this time

METAR text: UTNN 161730Z 06002KT CAVOK 25/05 Q1010 R33/CLRD60 NOSIG
Conditions at: UTNN (NUKUS/KARAKALPAK, UZ) observed 1730 UTC 16 June 2019
Temperature: 25.0°C (77°F)
Dewpoint: 5.0°C (41°F) [RH = 28%]
Pressure (altimeter): 29.82 inches Hg (1010.0 mb)
Winds: from the ENE (60 degrees) at 2 MPH (2 knots; 1.0 m/s)
Visibility: 6 or more miles (10+ km)
Ceiling: ceiling and visibility are OK
Clouds: unknown
Weather: no significant weather observed at this time

METAR text: UTNN 161700Z 00000KT CAVOK 26/05 Q1010 R33/CLRD60 NOSIG
Conditions at: UTNN (NUKUS/KARAKALPAK, UZ) observed 1700 UTC 16 June 2019
Temperature: 26.0°C (79°F)
Dewpoint: 5.0°C (41°F) [RH = 26%]
Pressure (altimeter): 29.82 inches Hg (1010.0 mb)
Winds: calm
Visibility: 6 or more miles (10+ km)
Ceiling: ceiling and visibility are OK
Clouds: unknown
Weather: no significant weather observed at this time

METAR text: UTNN 161630Z 00000KT CAVOK 26/06 Q1010 R33/CLRD60 NOSIG
Conditions at: UTNN (NUKUS/KARAKALPAK, UZ) observed 1630 UTC 16 June 2019
Temperature: 26.0°C (79°F)
Dewpoint: 6.0°C (43°F) [RH = 28%]
Pressure (altimeter): 29.82 inches Hg (1010.0 mb)
Winds: calm
Visibility: 6 or more miles (10+ km)
Ceiling: ceiling and visibility are OK
Clouds: unknown
Weather: no significant weather observed at this time

METAR text: UTNN 161600Z 00000KT CAVOK 28/05 Q1010 R33/CLRD60 NOSIG
Conditions at: UTNN (NUKUS/KARAKALPAK, UZ) observed 1600 UTC 16 June 2019
Temperature: 28.0°C (82°F)
Dewpoint: 5.0°C (41°F) [RH = 23%]
Pressure (altimeter): 29.82 inches Hg (1010.0 mb)
Winds: calm
Visibility: 6 or more miles (10+ km)
Ceiling: ceiling and visibility are OK
Clouds: unknown
Weather: no significant weather observed at this time

METAR text: UTNN 161530Z 22002KT CAVOK 29/04 Q1010 R33/CLRD60 NOSIG
Conditions at: UTNN (NUKUS/KARAKALPAK, UZ) observed 1530 UTC 16 June 2019
Temperature: 29.0°C (84°F)
Dewpoint: 4.0°C (39°F) [RH = 20%]
Pressure (altimeter): 29.82 inches Hg (1010.0 mb)
Winds: from the SW (220 degrees) at 2 MPH (2 knots; 1.0 m/s)
Visibility: 6 or more miles (10+ km)
Ceiling: ceiling and visibility are OK
Clouds: unknown
Weather: no significant weather observed at this time

METAR text: UTNN 161500Z 20004KT CAVOK 30/02 Q1010 R33/CLRD60 NOSIG
Conditions at: UTNN (NUKUS/KARAKALPAK, UZ) observed 1500 UTC 16 June 2019
Temperature: 30.0°C (86°F)
Dewpoint: 2.0°C (36°F) [RH = 17%]
Pressure (altimeter): 29.82 inches Hg (1010.0 mb)
Winds: from the SSW (200 degrees) at 5 MPH (4 knots; 2.1 m/s)
Visibility: 6 or more miles (10+ km)
Ceiling: ceiling and visibility are OK
Clouds: unknown
Weather: no significant weather observed at this time

METAR text: UTNN 161430Z 22004KT CAVOK 30/03 Q1010 R15/CLRD60 NOSIG
Conditions at: UTNN (NUKUS/KARAKALPAK, UZ) observed 1430 UTC 16 June 2019
Temperature: 30.0°C (86°F)
Dewpoint: 3.0°C (37°F) [RH = 18%]
Pressure (altimeter): 29.82 inches Hg (1010.0 mb)
Winds: from the SW (220 degrees) at 5 MPH (4 knots; 2.1 m/s)
Visibility: 6 or more miles (10+ km)
Ceiling: ceiling and visibility are OK
Clouds: unknown
Weather: no significant weather observed at this time

METAR text: UTNN 161400Z 20004KT CAVOK 31/02 Q1010 R15/CLRD60 NOSIG
Conditions at: UTNN (NUKUS/KARAKALPAK, UZ) observed 1400 UTC 16 June 2019
Temperature: 31.0°C (88°F)
Dewpoint: 2.0°C (36°F) [RH = 16%]
Pressure (altimeter): 29.82 inches Hg (1010.0 mb)
Winds: from the SSW (200 degrees) at 5 MPH (4 knots; 2.1 m/s)
Visibility: 6 or more miles (10+ km)
Ceiling: ceiling and visibility are OK
Clouds: unknown
Weather: no significant weather observed at this time

METAR text: UTNN 161330Z 16006KT CAVOK 31/01 Q1011 R33/CLRD60 NOSIG
Conditions at: UTNN (NUKUS/KARAKALPAK, UZ) observed 1330 UTC 16 June 2019
Temperature: 31.0°C (88°F)
Dewpoint: 1.0°C (34°F) [RH = 15%]
Pressure (altimeter): 29.85 inches Hg (1011.0 mb)
Winds: from the SSE (160 degrees) at 7 MPH (6 knots; 3.1 m/s)
Visibility: 6 or more miles (10+ km)
Ceiling: ceiling and visibility are OK
Clouds: unknown
Weather: no significant weather observed at this time

METAR text: UTNN 161300Z 20004KT CAVOK 31/02 Q1011 R33/CLRD60 NOSIG
Conditions at: UTNN (NUKUS/KARAKALPAK, UZ) observed 1300 UTC 16 June 2019
Temperature: 31.0°C (88°F)
Dewpoint: 2.0°C (36°F) [RH = 16%]
Pressure (altimeter): 29.85 inches Hg (1011.0 mb)
Winds: from the SSW (200 degrees) at 5 MPH (4 knots; 2.1 m/s)
Visibility: 6 or more miles (10+ km)
Ceiling: ceiling and visibility are OK
Clouds: unknown
Weather: no significant weather observed at this time

METAR text: UTNN 161230Z 20006KT CAVOK 31/01 Q1011 R33/CLRD60 NOSIG
Conditions at: UTNN (NUKUS/KARAKALPAK, UZ) observed 1230 UTC 16 June 2019
Temperature: 31.0°C (88°F)
Dewpoint: 1.0°C (34°F) [RH = 15%]
Pressure (altimeter): 29.85 inches Hg (1011.0 mb)
Winds: from the SSW (200 degrees) at 7 MPH (6 knots; 3.1 m/s)
Visibility: 6 or more miles (10+ km)
Ceiling: ceiling and visibility are OK
Clouds: unknown
Weather: no significant weather observed at this time

METAR text: UTNN 161200Z 20004KT CAVOK 31/01 Q1011 R33/CLRD60 NOSIG
Conditions at: UTNN (NUKUS/KARAKALPAK, UZ) observed 1200 UTC 16 June 2019
Temperature: 31.0°C (88°F)
Dewpoint: 1.0°C (34°F) [RH = 15%]
Pressure (altimeter): 29.85 inches Hg (1011.0 mb)
Winds: from the SSW (200 degrees) at 5 MPH (4 knots; 2.1 m/s)
Visibility: 6 or more miles (10+ km)
Ceiling: ceiling and visibility are OK
Clouds: unknown
Weather: no significant weather observed at this time

METAR text: UTNN 161130Z 22006KT CAVOK 32/01 Q1011 R33/CLRD60 NOSIG
Conditions at: UTNN (NUKUS/KARAKALPAK, UZ) observed 1130 UTC 16 June 2019
Temperature: 32.0°C (90°F)
Dewpoint: 1.0°C (34°F) [RH = 14%]
Pressure (altimeter): 29.85 inches Hg (1011.0 mb)
Winds: from the SW (220 degrees) at 7 MPH (6 knots; 3.1 m/s)
Visibility: 6 or more miles (10+ km)
Ceiling: ceiling and visibility are OK
Clouds: unknown
Weather: no significant weather observed at this time

METAR text: UTNN 161100Z 19008KT CAVOK 31/00 Q1011 R33/CLRD60 NOSIG
Conditions at: UTNN (NUKUS/KARAKALPAK, UZ) observed 1100 UTC 16 June 2019
Temperature: 31.0°C (88°F)
Dewpoint: 0.0°C (32°F) [RH = 14%]
Pressure (altimeter): 29.85 inches Hg (1011.0 mb)
Winds: from the S (190 degrees) at 9 MPH (8 knots; 4.1 m/s)
Visibility: 6 or more miles (10+ km)
Ceiling: ceiling and visibility are OK
Clouds: unknown
Weather: no significant weather observed at this time

METAR text: UTNN 161030Z 20008KT CAVOK 31/01 Q1011 R33/CLRD60 NOSIG
Conditions at: UTNN (NUKUS/KARAKALPAK, UZ) observed 1030 UTC 16 June 2019
Temperature: 31.0°C (88°F)
Dewpoint: 1.0°C (34°F) [RH = 15%]
Pressure (altimeter): 29.85 inches Hg (1011.0 mb)
Winds: from the SSW (200 degrees) at 9 MPH (8 knots; 4.1 m/s)
Visibility: 6 or more miles (10+ km)
Ceiling: ceiling and visibility are OK
Clouds: unknown
Weather: no significant weather observed at this time

METAR text: UTNN 161000Z 18006KT CAVOK 32/01 Q1011 R33/CLRD60 NOSIG
Conditions at: UTNN (NUKUS/KARAKALPAK, UZ) observed 1000 UTC 16 June 2019
Temperature: 32.0°C (90°F)
Dewpoint: 1.0°C (34°F) [RH = 14%]
Pressure (altimeter): 29.85 inches Hg (1011.0 mb)
Winds: from the S (180 degrees) at 7 MPH (6 knots; 3.1 m/s)
Visibility: 6 or more miles (10+ km)
Ceiling: ceiling and visibility are OK
Clouds: unknown
Weather: no significant weather observed at this time

METAR text: UTNN 160930Z 12008KT CAVOK 31/M01 Q1012 R33/CLRD60 NOSIG
Conditions at: UTNN (NUKUS/KARAKALPAK, UZ) observed 0930 UTC 16 June 2019
Temperature: 31.0°C (88°F)
Dewpoint: -1.0°C (30°F) [RH = 13%]
Pressure (altimeter): 29.88 inches Hg (1012.0 mb)
Winds: from the ESE (120 degrees) at 9 MPH (8 knots; 4.1 m/s)
Visibility: 6 or more miles (10+ km)
Ceiling: ceiling and visibility are OK
Clouds: unknown
Weather: no significant weather observed at this time

METAR text: UTNN 160900Z 15008KT CAVOK 31/M01 Q1012 R33/CLRD60 NOSIG
Conditions at: UTNN (NUKUS/KARAKALPAK, UZ) observed 0900 UTC 16 June 2019
Temperature: 31.0°C (88°F)
Dewpoint: -1.0°C (30°F) [RH = 13%]
Pressure (altimeter): 29.88 inches Hg (1012.0 mb)
Winds: from the SSE (150 degrees) at 9 MPH (8 knots; 4.1 m/s)
Visibility: 6 or more miles (10+ km)
Ceiling: ceiling and visibility are OK
Clouds: unknown
Weather: no significant weather observed at this time

METAR text: UTNN 160830Z 16008KT CAVOK 30/M01 Q1012 R33/CLRD60 NOSIG
Conditions at: UTNN (NUKUS/KARAKALPAK, UZ) observed 0830 UTC 16 June 2019
Temperature: 30.0°C (86°F)
Dewpoint: -1.0°C (30°F) [RH = 13%]
Pressure (altimeter): 29.88 inches Hg (1012.0 mb)
Winds: from the SSE (160 degrees) at 9 MPH (8 knots; 4.1 m/s)
Visibility: 6 or more miles (10+ km)
Ceiling: ceiling and visibility are OK
Clouds: unknown
Weather: no significant weather observed at this time

METAR text: UTNN 160800Z 19006KT CAVOK 30/M01 Q1013 R33/CLRD60 NOSIG
Conditions at: UTNN (NUKUS/KARAKALPAK, UZ) observed 0800 UTC 16 June 2019
Temperature: 30.0°C (86°F)
Dewpoint: -1.0°C (30°F) [RH = 13%]
Pressure (altimeter): 29.91 inches Hg (1013.0 mb)
Winds: from the S (190 degrees) at 7 MPH (6 knots; 3.1 m/s)
Visibility: 6 or more miles (10+ km)
Ceiling: ceiling and visibility are OK
Clouds: unknown
Weather: no significant weather observed at this time

METAR text: UTNN 160730Z 15008KT CAVOK 30/M01 Q1013 R33/CLRD60 NOSIG
Conditions at: UTNN (NUKUS/KARAKALPAK, UZ) observed 0730 UTC 16 June 2019
Temperature: 30.0°C (86°F)
Dewpoint: -1.0°C (30°F) [RH = 13%]
Pressure (altimeter): 29.91 inches Hg (1013.0 mb)
Winds: from the SSE (150 degrees) at 9 MPH (8 knots; 4.1 m/s)
Visibility: 6 or more miles (10+ km)
Ceiling: ceiling and visibility are OK
Clouds: unknown
Weather: no significant weather observed at this time

METAR text: UTNN 160700Z 12006KT CAVOK 29/M01 Q1013 R33/CLRD60 NOSIG
Conditions at: UTNN (NUKUS/KARAKALPAK, UZ) observed 0700 UTC 16 June 2019
Temperature: 29.0°C (84°F)
Dewpoint: -1.0°C (30°F) [RH = 14%]
Pressure (altimeter): 29.91 inches Hg (1013.0 mb)
Winds: from the ESE (120 degrees) at 7 MPH (6 knots; 3.1 m/s)
Visibility: 6 or more miles (10+ km)
Ceiling: ceiling and visibility are OK
Clouds: unknown
Weather: no significant weather observed at this time

METAR text: UTNN 160630Z 12006KT CAVOK 29/M01 Q1013 R33/CLRD60 NOSIG
Conditions at: UTNN (NUKUS/KARAKALPAK, UZ) observed 0630 UTC 16 June 2019
Temperature: 29.0°C (84°F)
Dewpoint: -1.0°C (30°F) [RH = 14%]
Pressure (altimeter): 29.91 inches Hg (1013.0 mb)
Winds: from the ESE (120 degrees) at 7 MPH (6 knots; 3.1 m/s)
Visibility: 6 or more miles (10+ km)
Ceiling: ceiling and visibility are OK
Clouds: unknown
Weather: no significant weather observed at this time

METAR text: UTNN 160600Z 13006KT CAVOK 28/M02 Q1013 R33/CLRD60 NOSIG
Conditions at: UTNN (NUKUS/KARAKALPAK, UZ) observed 0600 UTC 16 June 2019
Temperature: 28.0°C (82°F)
Dewpoint: -2.0°C (28°F) [RH = 14%]
Pressure (altimeter): 29.91 inches Hg (1013.0 mb)
Winds: from the SE (130 degrees) at 7 MPH (6 knots; 3.1 m/s)
Visibility: 6 or more miles (10+ km)
Ceiling: ceiling and visibility are OK
Clouds: unknown
Weather: no significant weather observed at this time

METAR text: UTNN 160530Z 13006KT CAVOK 28/M02 Q1013 R33/CLRD60 NOSIG
Conditions at: UTNN (NUKUS/KARAKALPAK, UZ) observed 0530 UTC 16 June 2019
Temperature: 28.0°C (82°F)
Dewpoint: -2.0°C (28°F) [RH = 14%]
Pressure (altimeter): 29.91 inches Hg (1013.0 mb)
Winds: from the SE (130 degrees) at 7 MPH (6 knots; 3.1 m/s)
Visibility: 6 or more miles (10+ km)
Ceiling: ceiling and visibility are OK
Clouds: unknown
Weather: no significant weather observed at this time

METAR text: UTNN 160500Z 12008KT CAVOK 28/M02 Q1013 R33/CLRD60 NOSIG
Conditions at: UTNN (NUKUS/KARAKALPAK, UZ) observed 0500 UTC 16 June 2019
Temperature: 28.0°C (82°F)
Dewpoint: -2.0°C (28°F) [RH = 14%]
Pressure (altimeter): 29.91 inches Hg (1013.0 mb)
Winds: from the ESE (120 degrees) at 9 MPH (8 knots; 4.1 m/s)
Visibility: 6 or more miles (10+ km)
Ceiling: ceiling and visibility are OK
Clouds: unknown
Weather: no significant weather observed at this time

METAR text: UTNN 160430Z 10006KT CAVOK 27/M02 Q1013 R33/CLRD60 NOSIG
Conditions at: UTNN (NUKUS/KARAKALPAK, UZ) observed 0430 UTC 16 June 2019
Temperature: 27.0°C (81°F)
Dewpoint: -2.0°C (28°F) [RH = 15%]
Pressure (altimeter): 29.91 inches Hg (1013.0 mb)
Winds: from the E (100 degrees) at 7 MPH (6 knots; 3.1 m/s)
Visibility: 6 or more miles (10+ km)
Ceiling: ceiling and visibility are OK
Clouds: unknown
Weather: no significant weather observed at this time

METAR text: UTNN 160400Z 09008KT CAVOK 26/M02 Q1013 R33/CLRD60 NOSIG
Conditions at: UTNN (NUKUS/KARAKALPAK, UZ) observed 0400 UTC 16 June 2019
Temperature: 26.0°C (79°F)
Dewpoint: -2.0°C (28°F) [RH = 16%]
Pressure (altimeter): 29.91 inches Hg (1013.0 mb)
Winds: from the E (90 degrees) at 9 MPH (8 knots; 4.1 m/s)
Visibility: 6 or more miles (10+ km)
Ceiling: ceiling and visibility are OK
Clouds: unknown
Weather: no significant weather observed at this time

METAR text: UTNN 160330Z 10006KT CAVOK 26/00 Q1013 R33/CLRD60 NOSIG
Conditions at: UTNN (NUKUS/KARAKALPAK, UZ) observed 0330 UTC 16 June 2019
Temperature: 26.0°C (79°F)
Dewpoint: 0.0°C (32°F) [RH = 18%]
Pressure (altimeter): 29.91 inches Hg (1013.0 mb)
Winds: from the E (100 degrees) at 7 MPH (6 knots; 3.1 m/s)
Visibility: 6 or more miles (10+ km)
Ceiling: ceiling and visibility are OK
Clouds: unknown
Weather: no significant weather observed at this time

METAR text: UTNN 160300Z 10006KT CAVOK 23/01 Q1013 R33/CLRD60 NOSIG
Conditions at: UTNN (NUKUS/KARAKALPAK, UZ) observed 0300 UTC 16 June 2019
Temperature: 23.0°C (73°F)
Dewpoint: 1.0°C (34°F) [RH = 23%]
Pressure (altimeter): 29.91 inches Hg (1013.0 mb)
Winds: from the E (100 degrees) at 7 MPH (6 knots; 3.1 m/s)
Visibility: 6 or more miles (10+ km)
Ceiling: ceiling and visibility are OK
Clouds: unknown
Weather: no significant weather observed at this time

METAR text: UTNN 160230Z 07006KT CAVOK 22/01 Q1013 R33/CLRD60 NOSIG
Conditions at: UTNN (NUKUS/KARAKALPAK, UZ) observed 0230 UTC 16 June 2019
Temperature: 22.0°C (72°F)
Dewpoint: 1.0°C (34°F) [RH = 25%]
Pressure (altimeter): 29.91 inches Hg (1013.0 mb)
Winds: from the ENE (70 degrees) at 7 MPH (6 knots; 3.1 m/s)
Visibility: 6 or more miles (10+ km)
Ceiling: ceiling and visibility are OK
Clouds: unknown
Weather: no significant weather observed at this time

METAR text: UTNN 160200Z VRB02KT CAVOK 20/01 Q1013 R33/CLRD60 NOSIG
Conditions at: UTNN (NUKUS/KARAKALPAK, UZ) observed 0200 UTC 16 June 2019
Temperature: 20.0°C (68°F)
Dewpoint: 1.0°C (34°F) [RH = 28%]
Pressure (altimeter): 29.91 inches Hg (1013.0 mb)
Winds: variable direction winds at 2 MPH (2 knots; 1.0 m/s)
Visibility: 6 or more miles (10+ km)
Ceiling: ceiling and visibility are OK
Clouds: unknown
Weather: no significant weather observed at this time

METAR text: UTNN 160130Z 00000KT CAVOK 18/03 Q1012 R33/CLRD60 NOSIG
Conditions at: UTNN (NUKUS/KARAKALPAK, UZ) observed 0130 UTC 16 June 2019
Temperature: 18.0°C (64°F)
Dewpoint: 3.0°C (37°F) [RH = 37%]
Pressure (altimeter): 29.88 inches Hg (1012.0 mb)
Winds: calm
Visibility: 6 or more miles (10+ km)
Ceiling: ceiling and visibility are OK
Clouds: unknown
Weather: no significant weather observed at this time

METAR text: UTNN 160100Z 03002KT CAVOK 17/02 Q1012 R33/CLRD60 NOSIG
Conditions at: UTNN (NUKUS/KARAKALPAK, UZ) observed 0100 UTC 16 June 2019
Temperature: 17.0°C (63°F)
Dewpoint: 2.0°C (36°F) [RH = 36%]
Pressure (altimeter): 29.88 inches Hg (1012.0 mb)
Winds: from the NNE (30 degrees) at 2 MPH (2 knots; 1.0 m/s)
Visibility: 6 or more miles (10+ km)
Ceiling: ceiling and visibility are OK
Clouds: unknown
Weather: no significant weather observed at this time

METAR text: UTNN 160030Z 04002KT CAVOK 16/02 Q1012 R33/CLRD60 NOSIG
Conditions at: UTNN (NUKUS/KARAKALPAK, UZ) observed 0030 UTC 16 June 2019
Temperature: 16.0°C (61°F)
Dewpoint: 2.0°C (36°F) [RH = 39%]
Pressure (altimeter): 29.88 inches Hg (1012.0 mb)
Winds: from the NE (40 degrees) at 2 MPH (2 knots; 1.0 m/s)
Visibility: 6 or more miles (10+ km)
Ceiling: ceiling and visibility are OK
Clouds: unknown
Weather: no significant weather observed at this time

METAR text: UTNN 160000Z 03002KT CAVOK 16/02 Q1012 R33/CLRD60 NOSIG
Conditions at: UTNN (NUKUS/KARAKALPAK, UZ) observed 0000 UTC 16 June 2019
Temperature: 16.0°C (61°F)
Dewpoint: 2.0°C (36°F) [RH = 39%]
Pressure (altimeter): 29.88 inches Hg (1012.0 mb)
Winds: from the NNE (30 degrees) at 2 MPH (2 knots; 1.0 m/s)
Visibility: 6 or more miles (10+ km)
Ceiling: ceiling and visibility are OK
Clouds: unknown
Weather: no significant weather observed at this time

METAR text: UTNN 152330Z 01004KT CAVOK 17/02 Q1011 R33/CLRD60 NOSIG
Conditions at: UTNN (NUKUS/KARAKALPAK, UZ) observed 2330 UTC 15 June 2019
Temperature: 17.0°C (63°F)
Dewpoint: 2.0°C (36°F) [RH = 36%]
Pressure (altimeter): 29.85 inches Hg (1011.0 mb)
Winds: from the N (10 degrees) at 5 MPH (4 knots; 2.1 m/s)
Visibility: 6 or more miles (10+ km)
Ceiling: ceiling and visibility are OK
Clouds: unknown
Weather: no significant weather observed at this time

METAR text: UTNN 152300Z 36002KT CAVOK 17/03 Q1011 R33/CLRD60 NOSIG
Conditions at: UTNN (NUKUS/KARAKALPAK, UZ) observed 2300 UTC 15 June 2019
Temperature: 17.0°C (63°F)
Dewpoint: 3.0°C (37°F) [RH = 39%]
Pressure (altimeter): 29.85 inches Hg (1011.0 mb)
Winds: from the N (360 degrees) at 2 MPH (2 knots; 1.0 m/s)
Visibility: 6 or more miles (10+ km)
Ceiling: ceiling and visibility are OK
Clouds: unknown
Weather: no significant weather observed at this time

Forecast for: UTNN (NUKUS/KARAKALPAK, UZ)
Text: TAF UTNN 170500Z 1706/1806 18010G20KT CAVOK
Forecast period: 0600 UTC 17 June 2019 to 0600 UTC 18 June 2019
Forecast type: FROM: standard forecast or significant change
Winds: from the S (180 degrees) at 12 MPH (10 knots; 5.1 m/s)
gusting to 23 MPH (20 knots; 10.3 m/s)
Visibility: 6 or more miles 10+ km)
Ceiling: unknown
Clouds: missing
Weather: NSW  (no significant weather)
Text: TEMPO 1708/1716 23014G24KT
Forecast period: 0800 to 1600 UTC 17 June 2019
Forecast type: TEMPORARY: The following changes expected for less than half the time period
Winds: from the SW (230 degrees) at 16 MPH (14 knots; 7.2 m/s)
gusting to 28 MPH (24 knots; 12.3 m/s)
Visibility: missing
Ceiling: unknown
Clouds: missing
Weather: no significant weather forecast for this period